createdAt,value
2023-01-31T00:00:23.794Z,3.54
2023-01-31T00:05:26.098Z,3.44
2023-01-31T00:10:30.261Z,3.40
2023-01-31T00:15:35.021Z,3.39
2023-01-31T00:20:38.724Z,3.37
2023-01-31T00:25:42.765Z,3.35
2023-01-31T00:30:46.918Z,3.34
2023-01-31T00:40:55.229Z,3.34
2023-01-31T00:45:59.387Z,3.36
2023-01-31T00:51:03.550Z,3.39
2023-01-31T00:56:07.745Z,3.42
2023-01-31T01:01:11.933Z,3.49
2023-01-31T01:06:16.079Z,3.53
2023-01-31T01:11:20.256Z,3.59
2023-01-31T01:16:24.460Z,3.60
2023-01-31T01:21:28.558Z,3.65
2023-01-31T01:26:32.939Z,3.68
2023-01-31T01:31:36.994Z,3.70
2023-01-31T01:36:41.062Z,3.69
2023-01-31T01:41:45.201Z,3.67
2023-01-31T01:46:49.413Z,3.62
2023-01-31T01:51:53.549Z,3.51
2023-01-31T01:56:55.788Z,3.46
2023-01-31T02:01:59.979Z,3.46
2023-01-31T02:07:02.246Z,3.49
2023-01-31T02:12:06.414Z,3.52
2023-01-31T02:17:08.675Z,3.53
2023-01-31T02:22:12.848Z,3.52
2023-01-31T02:27:16.982Z,3.53
2023-01-31T02:32:21.738Z,3.53
2023-01-31T02:37:25.608Z,3.49
2023-01-31T02:42:29.523Z,3.46
2023-01-31T02:47:33.649Z,3.44
2023-01-31T02:52:37.798Z,3.37
2023-01-31T02:57:42.012Z,3.31
2023-01-31T03:02:46.218Z,3.26
2023-01-31T03:07:50.337Z,3.28
2023-01-31T03:12:54.478Z,3.30
2023-01-31T03:17:58.752Z,3.32
2023-01-31T03:23:02.840Z,3.35
2023-01-31T03:28:06.984Z,3.37
2023-01-31T03:33:11.136Z,3.37
2023-01-31T03:38:15.391Z,3.38
2023-01-31T03:43:19.464Z,3.38
2023-01-31T03:53:27.792Z,3.42
2023-01-31T03:58:32.404Z,3.44
2023-01-31T04:03:36.104Z,3.43
2023-01-31T04:08:38.381Z,3.36
2023-01-31T04:13:42.580Z,3.37
2023-01-31T04:18:46.719Z,3.35
2023-01-31T04:23:50.879Z,3.32
2023-01-31T04:28:55.078Z,3.26
2023-01-31T04:33:59.251Z,3.26
2023-01-31T04:39:03.416Z,3.30
2023-01-31T04:44:08.007Z,3.33
2023-01-31T04:49:11.699Z,3.33
2023-01-31T04:54:15.890Z,3.37
2023-01-31T04:59:20.051Z,3.34
2023-01-31T05:04:24.183Z,3.32
2023-01-31T05:09:28.384Z,3.29
2023-01-31T05:14:32.681Z,3.26
2023-01-31T05:19:36.697Z,3.26
2023-01-31T05:24:40.885Z,3.29
2023-01-31T05:29:45.073Z,3.29
2023-01-31T05:34:49.208Z,3.33
2023-01-31T05:39:53.374Z,3.34
2023-01-31T05:44:57.513Z,3.39
2023-01-31T05:50:01.665Z,3.39
2023-01-31T05:55:03.948Z,3.39
2023-01-31T06:00:08.149Z,3.36
2023-01-31T06:05:10.440Z,3.35
2023-01-31T06:10:14.579Z,3.39
2023-01-31T06:15:16.820Z,3.44
2023-01-31T06:20:22.101Z,3.46
2023-01-31T06:25:25.164Z,3.46
2023-01-31T06:30:29.396Z,3.49
2023-01-31T06:35:33.484Z,3.52
2023-01-31T06:40:37.640Z,3.61
2023-01-31T06:45:41.883Z,3.70
2023-01-31T06:50:46.004Z,3.84
2023-01-31T06:55:50.126Z,3.90
2023-01-31T07:00:54.832Z,4.03
2023-01-31T07:05:58.478Z,4.00
2023-01-31T07:11:02.619Z,3.98
2023-01-31T07:16:06.884Z,3.99
2023-01-31T07:21:10.954Z,3.95
2023-01-31T07:26:15.147Z,3.95
2023-01-31T07:31:19.352Z,3.92
2023-01-31T07:36:23.605Z,3.96
2023-01-31T07:41:27.654Z,4.01
2023-01-31T07:46:32.266Z,4.02
2023-01-31T07:51:35.970Z,4.03
2023-01-31T07:56:40.101Z,4.10
2023-01-31T08:01:42.433Z,4.15
2023-01-31T08:06:46.576Z,4.20
2023-01-31T08:11:50.718Z,4.26
2023-01-31T08:16:54.953Z,4.32
2023-01-31T08:21:59.033Z,4.42
2023-01-31T08:27:03.189Z,4.45
2023-01-31T08:32:07.405Z,4.49
2023-01-31T08:37:11.624Z,4.50
2023-01-31T08:42:15.693Z,4.53
2023-01-31T08:47:19.873Z,4.52
2023-01-31T08:52:24.053Z,4.42
2023-01-31T08:57:28.213Z,4.34
2023-01-31T09:02:32.500Z,4.28
2023-01-31T09:07:36.502Z,4.26
2023-01-31T09:12:40.680Z,4.19
2023-01-31T09:17:44.840Z,4.23
2023-01-31T09:22:48.982Z,4.24
2023-01-31T09:27:53.160Z,4.31
2023-01-31T09:32:57.350Z,4.37
2023-01-31T09:38:01.560Z,4.40
2023-01-31T09:43:05.681Z,4.43
2023-01-31T09:48:07.953Z,4.52
2023-01-31T09:53:12.099Z,4.55
2023-01-31T09:58:14.355Z,4.70
2023-01-31T10:03:18.532Z,4.74
2023-01-31T10:08:20.820Z,4.91
2023-01-31T10:13:24.977Z,4.98
2023-01-31T10:18:29.292Z,4.81
2023-01-31T10:23:33.308Z,4.76
2023-01-31T10:28:37.446Z,4.71
2023-01-31T10:33:41.617Z,4.73
2023-01-31T10:38:45.819Z,4.79
2023-01-31T10:43:48.054Z,4.81
2023-01-31T10:48:52.215Z,4.79
2023-01-31T10:53:56.770Z,4.72
2023-01-31T10:59:00.569Z,4.70
2023-01-31T11:04:04.703Z,4.68
2023-01-31T11:09:08.908Z,4.67
2023-01-31T11:14:13.031Z,4.66
2023-01-31T11:19:17.196Z,4.70
2023-01-31T11:24:21.377Z,4.75
2023-01-31T11:29:25.530Z,4.77
2023-01-31T11:34:29.687Z,4.81
2023-01-31T11:39:33.854Z,4.91
2023-01-31T11:44:38.012Z,4.94
2023-01-31T11:49:42.168Z,5.02
2023-01-31T11:54:44.440Z,5.05
2023-01-31T11:59:48.605Z,5.09
2023-01-31T12:04:52.793Z,5.08
2023-01-31T12:09:55.069Z,5.10
2023-01-31T12:14:59.226Z,5.22
2023-01-31T12:20:09.067Z,5.24
2023-01-31T12:25:07.544Z,5.19
2023-01-31T12:30:11.852Z,5.20
2023-01-31T12:35:15.866Z,5.25
2023-01-31T12:45:24.201Z,5.34
2023-01-31T12:50:28.356Z,5.38
2023-01-31T12:55:32.509Z,5.40
2023-01-31T13:00:36.694Z,5.44
2023-01-31T13:05:40.851Z,5.46
2023-01-31T13:10:44.982Z,5.50
2023-01-31T13:15:49.225Z,5.53
2023-01-31T13:20:53.344Z,5.59
2023-01-31T13:25:57.475Z,5.59
2023-01-31T13:31:01.755Z,5.53
2023-01-31T13:36:05.835Z,5.47
2023-01-31T13:41:09.980Z,5.42
2023-01-31T13:46:14.174Z,5.38
2023-01-31T13:51:18.315Z,5.36
2023-01-31T13:56:22.481Z,5.35
2023-01-31T14:01:24.800Z,5.36
2023-01-31T14:06:28.906Z,5.34
2023-01-31T14:11:33.046Z,5.34
2023-01-31T14:16:37.275Z,5.35
2023-01-31T14:21:41.510Z,5.34
2023-01-31T14:26:45.625Z,5.38
2023-01-31T14:31:49.817Z,5.37
2023-01-31T14:36:53.881Z,5.39
2023-01-31T14:41:58.074Z,5.40
2023-01-31T14:47:05.895Z,5.44
2023-01-31T14:52:06.373Z,5.44
2023-01-31T14:57:10.564Z,5.46
2023-01-31T15:02:14.832Z,5.48
2023-01-31T15:07:18.866Z,5.51
2023-01-31T15:12:23.052Z,5.56
2023-01-31T15:17:35.928Z,5.61
2023-01-31T15:22:31.327Z,5.63
2023-01-31T15:27:35.520Z,5.66
2023-01-31T15:32:39.659Z,5.66
2023-01-31T15:37:43.849Z,5.68
2023-01-31T15:42:48.038Z,5.72
2023-01-31T15:47:50.300Z,5.75
2023-01-31T15:52:54.451Z,5.76
2023-01-31T15:57:56.778Z,5.78
2023-01-31T16:03:01.010Z,5.81
2023-01-31T16:08:03.247Z,5.85
2023-01-31T16:13:07.347Z,5.86
2023-01-31T16:18:11.580Z,5.89
2023-01-31T16:23:15.719Z,5.90
2023-01-31T16:28:19.815Z,5.96
2023-01-31T16:33:23.998Z,6.00
2023-01-31T16:38:28.109Z,6.02
2023-01-31T16:43:32.328Z,6.02
2023-01-31T16:48:36.448Z,6.08
2023-01-31T16:53:40.632Z,6.09
2023-01-31T16:58:44.761Z,6.14
2023-01-31T17:03:48.929Z,6.15
2023-01-31T17:08:53.115Z,6.17
2023-01-31T17:13:57.257Z,6.18
2023-01-31T17:19:01.599Z,6.21
2023-01-31T17:24:05.660Z,6.22
2023-01-31T17:29:09.749Z,6.23
2023-01-31T17:34:13.985Z,6.30
2023-01-31T17:39:18.114Z,6.33
2023-01-31T17:44:22.454Z,6.35
2023-01-31T17:49:26.429Z,6.35
2023-01-31T17:54:28.694Z,6.31
2023-01-31T17:59:32.827Z,6.33
2023-01-31T18:04:37.017Z,6.32
2023-01-31T18:09:41.150Z,6.29
2023-01-31T18:14:45.352Z,6.26
2023-01-31T18:19:49.494Z,6.24
2023-01-31T18:24:53.645Z,6.31
2023-01-31T18:29:57.824Z,6.31
2023-01-31T18:35:01.982Z,6.30
2023-01-31T18:40:06.174Z,6.27
2023-01-31T18:45:10.303Z,6.27
2023-01-31T18:50:14.484Z,6.25
2023-01-31T18:55:19.267Z,6.16
2023-01-31T19:00:22.803Z,6.08
2023-01-31T19:05:26.954Z,6.02
2023-01-31T19:10:31.159Z,5.97
2023-01-31T19:15:35.286Z,5.89
2023-01-31T19:20:39.450Z,5.82
2023-01-31T19:25:43.633Z,5.79
2023-01-31T19:30:47.810Z,5.73
2023-01-31T19:35:51.947Z,5.69
2023-01-31T19:40:54.209Z,5.67
2023-01-31T19:45:58.464Z,5.70
2023-01-31T19:51:02.573Z,5.70
2023-01-31T19:56:06.687Z,5.65
2023-01-31T20:01:10.961Z,5.62
2023-01-31T20:06:15.007Z,5.55
2023-01-31T20:11:19.196Z,5.51
2023-01-31T20:16:23.461Z,5.39
2023-01-31T20:21:27.531Z,5.33
2023-01-31T20:26:31.731Z,5.22
2023-01-31T20:31:35.886Z,5.18
2023-01-31T20:36:40.003Z,5.15
2023-01-31T20:41:44.218Z,5.15
2023-01-31T20:46:48.301Z,5.14
2023-01-31T20:51:52.484Z,5.10
2023-01-31T20:56:56.674Z,5.07
2023-01-31T21:02:00.809Z,4.99
2023-01-31T21:07:04.982Z,4.96
2023-01-31T21:12:09.174Z,4.93
2023-01-31T21:17:13.304Z,4.87
2023-01-31T21:22:17.526Z,4.79
2023-01-31T21:27:19.795Z,4.76
2023-01-31T21:32:23.950Z,4.72
2023-01-31T21:37:26.202Z,4.73
2023-01-31T21:42:30.368Z,4.76
2023-01-31T21:47:34.516Z,4.72
2023-01-31T21:52:38.670Z,4.67
2023-01-31T21:57:42.821Z,4.66
2023-01-31T22:02:47.077Z,4.64
2023-01-31T22:07:51.157Z,4.62
2023-01-31T22:12:55.341Z,4.63
2023-01-31T22:17:59.541Z,4.60
2023-01-31T22:23:03.689Z,4.52
2023-01-31T22:28:07.841Z,4.50
2023-01-31T22:33:11.984Z,4.50
2023-01-31T22:38:16.181Z,4.62
2023-01-31T22:43:20.298Z,4.73
2023-01-31T22:48:24.457Z,4.82
2023-01-31T22:53:28.638Z,4.84
2023-01-31T22:58:32.795Z,4.80
2023-01-31T23:03:39.026Z,4.84
2023-01-31T23:08:41.188Z,4.86
2023-01-31T23:13:45.303Z,4.91
2023-01-31T23:18:49.485Z,4.99
2023-01-31T23:23:51.717Z,4.99
2023-01-31T23:28:55.911Z,5.03
2023-01-31T23:33:58.145Z,5.06
2023-01-31T23:39:02.353Z,5.07
2023-01-31T23:44:04.598Z,5.12
2023-01-31T23:49:08.777Z,5.14
2023-01-31T23:54:12.946Z,5.15
2023-01-31T23:59:17.116Z,5.12
